Time;durP1;ratioP1;P1;durP2;ratioP2;P2;SDS_P1;SDS_P2;PMS_P1;PMS_P2;Temp;Humidity;BMP_temperature;BMP_pressure;BME280_temperature;BME280_humidity;BME280_pressure;Samples;Min_cycle;Max_cycle;Signal;HPM_P1;HPM_P2
2021/01/01 00:02:19;;;;;;;122.82;68.00;;;3.80;92.80;;;;;;5053723;28;20028;-75
2021/01/01 00:04:44;;;;;;;93.97;55.35;;;3.90;92.70;;;;;;5046072;28;20029;-77
2021/01/01 00:07:10;;;;;;;94.32;54.42;;;3.80;92.70;;;;;;5028572;28;20036;-80
2021/01/01 00:09:36;;;;;;;100.72;53.95;;;3.80;92.60;;;;;;5027083;28;20025;-81
2021/01/01 00:12:02;;;;;;;95.55;56.50;;;3.80;92.60;;;;;;5026333;28;20033;-81
2021/01/01 00:14:28;;;;;;;96.68;54.65;;;3.80;92.60;;;;;;5067136;28;20062;-81
2021/01/01 00:16:54;;;;;;;107.97;66.07;;;3.80;92.60;;;;;;5073453;28;20086;-81
2021/01/01 00:19:19;;;;;;;131.43;73.45;;;3.80;92.60;;;;;;5056944;28;20027;-81
2021/01/01 00:21:45;;;;;;;109.03;60.97;;;3.80;92.50;;;;;;5071851;28;20032;-81
2021/01/01 00:24:11;;;;;;;104.03;59.17;;;3.80;92.50;;;;;;5055582;28;20028;-80
2021/01/01 00:26:36;;;;;;;101.60;58.42;;;3.80;92.50;;;;;;5073675;28;20119;-81
2021/01/01 00:29:02;;;;;;;91.32;52.72;;;3.80;92.50;;;;;;5075154;28;20034;-81
2021/01/01 00:31:28;;;;;;;89.70;51.25;;;3.80;92.50;;;;;;5058350;28;20028;-81
2021/01/01 00:33:54;;;;;;;96.15;54.83;;;3.80;92.50;;;;;;5058161;28;20127;-81
2021/01/01 00:36:20;;;;;;;88.05;52.10;;;3.80;92.50;;;;;;5054793;28;20465;-81
2021/01/01 00:38:51;;;;;;;88.72;50.55;;;3.80;92.50;;;;;;5074560;28;20139;-81
2021/01/01 00:41:31;;;;;;;93.38;52.55;;;3.70;92.50;;;;;;5074596;28;20063;-81
2021/01/01 00:43:58;;;;;;;95.38;52.55;;;3.80;92.80;;;;;;5074686;28;20024;-81
2021/01/01 00:46:25;;;;;;;88.18;51.70;;;3.70;92.50;;;;;;5057947;28;21897;-81
2021/01/01 00:48:51;;;;;;;88.45;50.60;;;3.70;92.50;;;;;;5074814;28;20025;-81
2021/01/01 00:51:24;;;;;;;100.45;55.80;;;3.70;92.50;;;;;;5075648;28;20017;-81
2021/01/01 00:53:50;;;;;;;88.43;51.63;;;3.70;92.50;;;;;;5078124;28;20028;-81
2021/01/01 00:56:20;;;;;;;79.32;48.05;;;3.70;92.50;;;;;;5078590;28;20047;-81
2021/01/01 00:58:46;;;;;;;82.35;46.20;;;3.70;92.50;;;;;;5078566;28;20028;-81
2021/01/01 01:01:12;;;;;;;85.47;48.30;;;3.70;92.50;;;;;;5061836;28;20074;-81
2021/01/01 01:03:37;;;;;;;90.95;49.50;;;3.70;92.50;;;;;;5061582;28;20396;-81
2021/01/01 01:06:03;;;;;;;82.00;47.72;;;3.70;92.50;;;;;;5061570;28;20071;-81
2021/01/01 01:08:28;;;;;;;79.53;46.20;;;3.80;92.50;;;;;;5078011;28;20500;-81
2021/01/01 01:10:54;;;;;;;79.97;45.80;;;3.70;92.50;;;;;;5078207;28;20027;-81
2021/01/01 01:13:19;;;;;;;80.43;46.15;;;3.80;92.50;;;;;;5058063;28;20115;-81
2021/01/01 01:15:45;;;;;;;83.55;49.33;;;3.70;92.40;;;;;;5066240;28;20043;-81
2021/01/01 01:18:11;;;;;;;76.53;47.40;;;3.70;92.50;;;;;;5088835;28;20472;-81
2021/01/01 01:20:36;;;;;;;75.13;46.17;;;3.80;92.50;;;;;;5060039;28;20123;-81
2021/01/01 01:23:02;;;;;;;77.00;45.40;;;3.80;92.50;;;;;;5043145;28;20020;-82
2021/01/01 01:25:27;;;;;;;81.05;47.03;;;3.80;92.40;;;;;;5077816;28;20036;-82
2021/01/01 01:27:53;;;;;;;77.55;46.47;;;3.80;92.40;;;;;;5077290;28;20032;-82
2021/01/01 01:30:19;;;;;;;78.32;44.72;;;3.80;92.40;;;;;;5077482;28;20361;-82
2021/01/01 01:32:45;;;;;;;84.65;48.28;;;3.80;92.40;;;;;;5061962;28;20031;-83
2021/01/01 01:35:10;;;;;;;86.93;48.88;;;3.70;92.40;;;;;;5077463;28;20028;-82
2021/01/01 01:41:02;;;;;;;80.55;46.13;;;3.80;92.40;;;;;;5075747;28;20028;-82
2021/01/01 01:46:50;;;;;;;83.15;47.92;;;3.80;92.40;;;;;;5085090;28;20035;-83
2021/01/01 01:49:17;;;;;;;94.45;53.20;;;3.80;92.60;;;;;;5077526;28;20434;-82
2021/01/01 01:51:48;;;;;;;93.82;53.20;;;3.70;92.30;;;;;;5089741;28;20475;-82
2021/01/01 01:54:18;;;;;;;86.47;49.58;;;3.70;92.30;;;;;;5077460;28;20111;-83
2021/01/01 01:56:45;;;;;;;89.85;50.97;;;3.70;92.60;;;;;;5095626;28;20134;-82
2021/01/01 01:59:13;;;;;;;94.18;52.92;;;3.70;92.30;;;;;;5077101;28;20028;-82
2021/01/01 02:01:38;;;;;;;90.90;51.17;;;3.70;92.30;;;;;;5077288;28;20028;-83
2021/01/01 02:04:04;;;;;;;91.60;52.13;;;3.60;92.40;;;;;;5077178;28;20085;-83
2021/01/01 02:06:30;;;;;;;95.88;48.92;;;3.60;92.40;;;;;;5077162;28;20148;-83
2021/01/01 02:08:56;;;;;;;86.55;50.80;;;3.60;92.50;;;;;;5077013;28;20029;-83
2021/01/01 02:11:22;;;;;;;86.78;48.28;;;3.60;92.50;;;;;;5060107;28;20036;-83
2021/01/01 02:13:51;;;;;;;84.53;49.70;;;3.60;92.50;;;;;;5076767;28;20024;-81
2021/01/01 02:16:19;;;;;;;85.03;47.58;;;3.70;92.60;;;;;;5076663;28;20052;-83
2021/01/01 02:18:45;;;;;;;83.32;47.65;;;3.70;92.50;;;;;;5060646;28;20032;-83
2021/01/01 02:21:16;;;;;;;80.95;46.22;;;3.70;92.50;;;;;;5076968;28;20039;-83
2021/01/01 02:23:42;;;;;;;89.45;50.03;;;3.70;92.50;;;;;;5076781;28;20028;-83
2021/01/01 02:26:07;;;;;;;90.68;53.22;;;3.80;92.50;;;;;;5060029;28;20031;-83
2021/01/01 02:28:33;;;;;;;94.00;53.63;;;3.80;92.50;;;;;;5076821;28;20043;-83
2021/01/01 02:30:59;;;;;;;100.03;54.40;;;3.80;92.40;;;;;;5102080;28;20026;-83
2021/01/01 02:33:25;;;;;;;104.80;59.95;;;3.80;92.50;;;;;;5080100;28;20480;-83
2021/01/01 02:35:50;;;;;;;103.68;57.72;;;3.80;92.70;;;;;;5076584;28;20020;-83
2021/01/01 02:38:16;;;;;;;99.32;55.47;;;3.80;92.40;;;;;;5088937;28;20032;-83
2021/01/01 02:40:42;;;;;;;95.13;55.35;;;3.80;92.40;;;;;;5056342;28;20048;-83
2021/01/01 02:43:07;;;;;;;103.35;55.58;;;3.80;92.50;;;;;;5074551;28;20662;-83
2021/01/01 02:45:33;;;;;;;97.80;57.85;;;3.80;92.50;;;;;;5059589;28;20028;-82
2021/01/01 02:48:15;;;;;;;96.40;55.30;;;3.80;92.50;;;;;;5076248;28;20384;-83
2021/01/01 02:50:42;;;;;;;135.73;71.00;;;3.80;92.50;;;;;;5076232;28;20585;-83
2021/01/01 02:53:09;;;;;;;108.28;60.85;;;3.70;92.50;;;;;;5094149;28;20016;-82
2021/01/01 02:55:35;;;;;;;103.57;59.10;;;3.80;92.50;;;;;;5075998;28;20028;-83
2021/01/01 02:58:01;;;;;;;118.45;63.72;;;3.70;92.50;;;;;;5094016;28;20539;-83
2021/01/01 03:00:27;;;;;;;98.10;56.00;;;3.70;92.50;;;;;;5075875;28;20032;-83
2021/01/01 03:02:54;;;;;;;97.32;56.58;;;3.70;92.70;;;;;;5094131;28;20376;-83
2021/01/01 03:05:19;;;;;;;106.75;61.42;;;3.70;92.50;;;;;;5075941;28;20039;-83
2021/01/01 03:07:45;;;;;;;101.03;60.38;;;3.70;92.50;;;;;;5076037;28;20024;-83
2021/01/01 03:10:11;;;;;;;104.57;60.15;;;3.70;92.50;;;;;;5059173;28;20028;-83
2021/01/01 03:12:36;;;;;;;105.20;61.38;;;3.70;92.50;;;;;;5075994;28;20020;-83
2021/01/01 03:15:04;;;;;;;102.00;58.17;;;3.70;92.50;;;;;;5055214;28;20072;-83
2021/01/01 03:17:29;;;;;;;107.45;56.97;;;3.70;92.40;;;;;;5073391;28;20526;-83
2021/01/01 03:19:55;;;;;;;104.63;57.17;;;3.70;92.50;;;;;;5059153;28;20031;-83
2021/01/01 03:22:21;;;;;;;104.93;57.47;;;3.70;92.50;;;;;;5059150;28;20391;-82
2021/01/01 03:24:46;;;;;;;96.30;53.53;;;3.70;92.50;;;;;;5075551;28;20032;-83
2021/01/01 03:27:12;;;;;;;97.65;55.72;;;3.60;92.50;;;;;;5058706;28;20038;-83
2021/01/01 03:29:37;;;;;;;106.97;57.33;;;3.60;92.50;;;;;;5075144;28;20477;-83
2021/01/01 03:32:03;;;;;;;99.95;56.92;;;3.70;92.50;;;;;;5074227;28;20036;-83
2021/01/01 03:34:29;;;;;;;104.78;57.83;;;3.60;92.50;;;;;;5058384;28;20481;-83
2021/01/01 03:36:55;;;;;;;105.22;58.35;;;3.60;92.50;;;;;;5058379;28;20032;-83
2021/01/01 03:39:21;;;;;;;103.63;56.75;;;3.60;92.50;;;;;;5074691;28;20028;-83
2021/01/01 03:41:46;;;;;;;105.05;54.88;;;3.60;92.50;;;;;;5057470;28;20503;-83
2021/01/01 03:44:12;;;;;;;107.28;60.80;;;3.60;92.50;;;;;;5056645;28;20032;-83
2021/01/01 03:46:38;;;;;;;106.22;57.40;;;3.60;92.40;;;;;;5090467;28;20036;-83
2021/01/01 03:49:04;;;;;;;106.60;60.10;;;3.60;92.40;;;;;;5092008;28;20027;-83
2021/01/01 03:51:29;;;;;;;98.80;55.47;;;3.60;92.40;;;;;;5056532;28;20493;-83
2021/01/01 03:53:55;;;;;;;108.55;62.72;;;3.50;92.40;;;;;;5074067;28;20033;-83
2021/01/01 03:56:20;;;;;;;103.53;57.17;;;3.50;92.40;;;;;;5058661;28;20435;-83
2021/01/01 03:58:46;;;;;;;100.70;56.63;;;3.50;92.40;;;;;;5074971;28;20107;-83
2021/01/01 04:01:16;;;;;;;96.63;54.13;;;3.50;92.50;;;;;;5075356;28;20385;-83
2021/01/01 04:03:41;;;;;;;99.80;56.90;;;3.50;92.80;;;;;;5056001;28;20029;-83
2021/01/01 04:06:07;;;;;;;114.05;61.70;;;3.40;92.50;;;;;;5075113;28;20035;-83
2021/01/01 04:08:33;;;;;;;107.78;57.85;;;3.50;92.50;;;;;;5075139;28;20028;-83
2021/01/01 04:10:58;;;;;;;98.57;54.22;;;3.50;92.50;;;;;;5093294;28;20836;-83
2021/01/01 04:13:24;;;;;;;107.55;57.75;;;3.40;92.40;;;;;;5093124;28;20418;-83
2021/01/01 04:15:50;;;;;;;107.38;58.60;;;3.40;92.50;;;;;;5054846;28;20518;-83
2021/01/01 04:18:16;;;;;;;102.63;58.88;;;3.50;92.50;;;;;;5074983;28;20032;-83
2021/01/01 04:20:42;;;;;;;104.68;57.65;;;3.50;92.50;;;;;;5058597;28;20069;-83
2021/01/01 04:23:07;;;;;;;115.15;60.65;;;3.50;92.50;;;;;;5058136;28;20513;-83
2021/01/01 04:25:33;;;;;;;100.30;55.45;;;3.50;92.40;;;;;;5075140;28;20035;-83
2021/01/01 04:27:59;;;;;;;98.97;54.50;;;3.50;92.40;;;;;;5060635;28;20141;-83
2021/01/01 04:30:25;;;;;;;110.22;58.40;;;3.50;92.40;;;;;;5062140;28;20499;-83
2021/01/01 04:32:50;;;;;;;103.30;54.28;;;3.50;92.40;;;;;;5061795;28;20016;-83
2021/01/01 04:35:16;;;;;;;105.57;54.78;;;3.40;92.40;;;;;;5062120;28;20093;-83
2021/01/01 04:37:41;;;;;;;100.45;55.13;;;3.50;92.40;;;;;;5078331;28;20027;-83
2021/01/01 04:40:08;;;;;;;102.68;57.35;;;3.50;92.40;;;;;;5096579;28;20476;-83
2021/01/01 04:42:34;;;;;;;99.13;54.63;;;3.40;92.40;;;;;;5078608;28;20054;-83
2021/01/01 04:45:00;;;;;;;98.75;54.33;;;3.40;92.40;;;;;;5058842;28;20029;-83
2021/01/01 04:47:27;;;;;;;95.72;54.00;;;3.40;92.40;;;;;;5078353;28;20039;-83
2021/01/01 04:49:53;;;;;;;95.10;53.60;;;3.40;92.40;;;;;;5060906;28;20025;-83
2021/01/01 04:52:18;;;;;;;99.35;54.53;;;3.40;92.40;;;;;;5077046;28;20020;-83
2021/01/01 04:54:48;;;;;;;106.13;58.40;;;3.40;92.50;;;;;;5058673;28;20029;-83
2021/01/01 04:57:13;;;;;;;101.88;56.30;;;3.30;92.40;;;;;;5077264;28;20484;-82
2021/01/01 04:59:39;;;;;;;97.25;51.70;;;3.20;92.40;;;;;;5058183;28;20032;-83
2021/01/01 05:02:05;;;;;;;96.75;52.00;;;3.20;92.50;;;;;;5058528;28;20050;-83
2021/01/01 05:04:30;;;;;;;97.45;52.90;;;3.20;92.50;;;;;;5068100;28;20503;-83
2021/01/01 05:06:56;;;;;;;94.72;52.15;;;3.30;92.50;;;;;;5062727;28;20028;-83
2021/01/01 05:09:22;;;;;;;90.60;51.15;;;3.30;92.50;;;;;;5047017;28;20042;-83
2021/01/01 05:11:48;;;;;;;95.53;49.63;;;3.20;92.50;;;;;;5065730;28;20070;-83
2021/01/01 05:14:13;;;;;;;99.97;52.67;;;3.30;92.50;;;;;;5078224;28;20500;-83
2021/01/01 05:16:50;;;;;;;103.63;56.15;;;3.30;92.50;;;;;;5061353;28;20123;-83
2021/01/01 05:19:15;;;;;;;101.88;55.03;;;3.30;92.50;;;;;;5078212;28;20031;-83
2021/01/01 05:21:41;;;;;;;107.75;57.05;;;3.30;92.50;;;;;;5061506;28;20028;-83
2021/01/01 05:24:07;;;;;;;111.97;58.83;;;3.30;92.50;;;;;;5077845;28;20123;-83
2021/01/01 05:26:33;;;;;;;108.63;61.25;;;3.30;92.50;;;;;;5077934;28;20158;-83
2021/01/01 05:29:07;;;;;;;114.93;61.50;;;3.30;92.40;;;;;;5077523;28;20024;-83
2021/01/01 05:31:38;;;;;;;112.32;62.65;;;3.30;92.50;;;;;;5077684;28;20032;-83
2021/01/01 05:34:06;;;;;;;116.63;60.40;;;3.30;92.50;;;;;;5077547;28;20127;-82
2021/01/01 05:36:58;;;;;;;108.30;60.28;;;3.30;92.50;;;;;;5077437;28;20024;-83
2021/01/01 05:39:23;;;;;;;111.43;59.97;;;3.30;92.50;;;;;;5087312;28;20131;-83
2021/01/01 05:41:53;;;;;;;113.43;59.58;;;3.30;92.50;;;;;;5060915;28;20107;-83
2021/01/01 05:44:20;;;;;;;111.50;60.08;;;3.20;92.50;;;;;;5077446;28;20500;-83
2021/01/01 05:47:06;;;;;;;105.68;58.78;;;3.20;92.40;;;;;;5077435;28;20529;-83
2021/01/01 05:49:35;;;;;;;106.93;58.05;;;3.20;92.50;;;;;;5077336;28;20024;-83
2021/01/01 05:52:18;;;;;;;104.10;59.45;;;3.20;92.40;;;;;;5077342;28;20388;-83
2021/01/01 05:54:50;;;;;;;112.65;57.90;;;3.20;92.50;;;;;;5060781;28;20181;-83
2021/01/01 05:57:17;;;;;;;107.00;59.47;;;3.20;92.40;;;;;;5095588;28;20016;-83
2021/01/01 05:59:45;;;;;;;111.53;58.58;;;3.20;92.50;;;;;;5095432;28;20020;-83
2021/01/01 06:02:11;;;;;;;111.60;59.93;;;3.20;92.40;;;;;;5077528;28;20117;-83
2021/01/01 06:04:38;;;;;;;110.90;60.45;;;3.10;92.40;;;;;;5095647;28;20040;-82
2021/01/01 06:07:08;;;;;;;121.78;63.15;;;3.20;92.50;;;;;;5077357;28;20062;-83
2021/01/01 06:09:35;;;;;;;121.65;62.45;;;3.20;92.40;;;;;;5076979;28;20027;-83
2021/01/01 06:12:09;;;;;;;109.22;58.67;;;3.10;92.40;;;;;;5077122;28;20020;-83
2021/01/01 06:14:40;;;;;;;115.43;62.03;;;3.10;92.50;;;;;;5076725;28;20150;-83
2021/01/01 06:17:08;;;;;;;112.88;58.92;;;3.20;92.50;;;;;;5076972;28;20502;-83
2021/01/01 06:19:53;;;;;;;115.88;61.17;;;3.10;92.40;;;;;;5095118;28;20024;-83
2021/01/01 06:22:21;;;;;;;115.22;59.75;;;3.20;92.50;;;;;;5076886;28;20062;-83
2021/01/01 06:24:50;;;;;;;118.20;63.75;;;3.20;92.40;;;;;;5094965;28;20050;-83
2021/01/01 06:27:17;;;;;;;118.05;61.78;;;3.20;92.40;;;;;;5076893;28;20097;-83
2021/01/01 06:29:53;;;;;;;122.65;63.67;;;3.20;92.70;;;;;;5076637;28;20025;-83
2021/01/01 06:32:20;;;;;;;116.45;62.80;;;3.20;92.40;;;;;;5091924;28;20023;-83
2021/01/01 06:34:46;;;;;;;117.25;62.05;;;3.20;92.50;;;;;;5062200;28;20110;-83
2021/01/01 06:37:35;;;;;;;108.90;59.85;;;3.20;92.40;;;;;;5076660;28;20534;-83
2021/01/01 06:40:01;;;;;;;109.18;57.50;;;3.20;92.50;;;;;;5076522;28;20028;-83
2021/01/01 06:42:48;;;;;;;112.07;58.40;;;3.10;92.50;;;;;;5060156;28;20047;-82
2021/01/01 06:45:40;;;;;;;116.55;60.22;;;3.10;92.50;;;;;;5076259;28;20664;-83
2021/01/01 06:48:20;;;;;;;135.23;65.03;;;3.10;92.50;;;;;;5076321;28;20053;-83
2021/01/01 06:50:51;;;;;;;111.95;58.58;;;3.10;92.50;;;;;;5076156;28;20034;-83
2021/01/01 06:53:19;;;;;;;111.30;57.17;;;3.10;92.50;;;;;;5094527;28;20045;-82
2021/01/01 06:55:46;;;;;;;97.47;52.35;;;3.10;92.80;;;;;;5076365;28;20042;-83
2021/01/01 06:58:15;;;;;;;94.82;49.60;;;3.10;92.60;;;;;;5094541;28;20073;-83
2021/01/01 07:00:50;;;;;;;102.10;52.75;;;3.10;92.60;;;;;;5059959;28;20035;-83
2021/01/01 07:03:39;;;;;;;99.55;50.25;;;3.10;92.60;;;;;;5075945;28;20556;-83
2021/01/01 07:06:04;;;;;;;96.57;51.88;;;3.10;92.60;;;;;;5059299;28;20090;-83
2021/01/01 07:08:42;;;;;;;97.65;51.22;;;3.10;92.60;;;;;;5075961;28;20024;-83
2021/01/01 07:11:11;;;;;;;93.03;49.20;;;3.10;92.60;;;;;;5075024;28;20028;-83
2021/01/01 07:13:45;;;;;;;95.10;48.28;;;3.10;92.60;;;;;;5096174;28;20416;-83
2021/01/01 07:16:12;;;;;;;93.95;48.63;;;3.10;92.60;;;;;;5092644;28;20399;-83
2021/01/01 07:18:38;;;;;;;118.32;54.90;;;3.10;92.90;;;;;;5074939;28;20042;-83
2021/01/01 07:21:08;;;;;;;88.03;47.10;;;3.20;92.60;;;;;;5074474;28;20039;-83
2021/01/01 07:23:34;;;;;;;87.38;45.22;;;3.20;92.60;;;;;;5092540;28;20468;-83
2021/01/01 07:26:02;;;;;;;86.20;47.10;;;3.20;92.60;;;;;;5074063;28;20028;-83
2021/01/01 07:28:28;;;;;;;83.80;45.58;;;3.20;92.60;;;;;;5057461;28;20445;-83
2021/01/01 07:30:55;;;;;;;95.93;47.13;;;3.20;92.50;;;;;;5073822;28;20016;-83
2021/01/01 07:33:28;;;;;;;90.82;45.22;;;3.20;92.60;;;;;;5074693;28;20107;-83
2021/01/01 07:35:54;;;;;;;91.70;46.78;;;3.20;92.60;;;;;;5075322;28;20101;-83
2021/01/01 07:38:21;;;;;;;90.72;45.72;;;3.30;92.60;;;;;;5075669;28;20035;-83
2021/01/01 07:40:47;;;;;;;89.28;46.10;;;3.20;92.50;;;;;;5058388;28;20043;-83
2021/01/01 07:43:13;;;;;;;93.90;44.85;;;3.20;92.50;;;;;;5093322;28;20468;-83
2021/01/01 07:45:39;;;;;;;91.53;43.80;;;3.20;92.50;;;;;;5075176;28;20052;-83
2021/01/01 07:48:05;;;;;;;77.65;44.22;;;3.20;92.50;;;;;;5058594;28;20400;-83
2021/01/01 07:50:32;;;;;;;84.85;42.65;;;3.20;92.60;;;;;;5055033;28;20029;-83
2021/01/01 07:53:08;;;;;;;83.28;43.97;;;3.20;92.60;;;;;;5083490;28;20024;-83
2021/01/01 07:55:35;;;;;;;82.65;41.97;;;3.20;92.60;;;;;;5082112;28;20035;-83
2021/01/01 07:58:10;;;;;;;75.68;38.25;;;3.20;92.50;;;;;;5075233;28;20500;-83
2021/01/01 08:00:38;;;;;;;74.15;37.92;;;3.30;92.60;;;;;;5075034;28;20047;-83
2021/01/01 08:03:04;;;;;;;67.28;37.15;;;3.30;92.50;;;;;;5093003;28;20063;-83
2021/01/01 08:05:31;;;;;;;70.53;36.50;;;3.20;92.50;;;;;;5054897;28;20044;-83
2021/01/01 08:08:15;;;;;;;69.22;35.17;;;3.20;92.50;;;;;;5075722;28;22035;-83
2021/01/01 08:10:43;;;;;;;62.17;33.28;;;3.30;92.60;;;;;;5058312;28;21821;-83
2021/01/01 08:13:15;;;;;;;68.53;35.60;;;3.30;92.50;;;;;;5092863;28;20427;-83
2021/01/01 08:15:42;;;;;;;70.80;36.08;;;3.30;92.70;;;;;;5074872;28;20071;-83
2021/01/01 08:18:16;;;;;;;65.60;35.70;;;3.20;92.50;;;;;;5093002;28;20024;-83
2021/01/01 08:20:46;;;;;;;72.68;37.28;;;3.30;92.60;;;;;;5093123;28;20126;-83
2021/01/01 08:23:16;;;;;;;68.63;37.80;;;3.20;92.50;;;;;;5075674;28;20384;-83
2021/01/01 08:25:44;;;;;;;67.93;37.70;;;3.30;92.50;;;;;;5092802;28;20028;-83
2021/01/01 08:28:11;;;;;;;69.60;37.17;;;3.20;92.50;;;;;;5092921;28;20021;-83
2021/01/01 08:30:38;;;;;;;65.25;35.15;;;3.30;92.50;;;;;;5093001;28;20080;-83
2021/01/01 08:33:05;;;;;;;68.38;36.50;;;3.20;92.50;;;;;;5058275;28;20028;-83
2021/01/01 08:35:31;;;;;;;74.40;36.67;;;3.20;92.50;;;;;;5058203;28;20058;-83
2021/01/01 08:37:57;;;;;;;81.63;39.03;;;3.30;92.50;;;;;;5074911;28;20032;-83
2021/01/01 08:40:23;;;;;;;69.70;36.67;;;3.20;92.50;;;;;;5074341;28;20024;-80
2021/01/01 08:42:55;;;;;;;67.85;36.97;;;3.20;92.50;;;;;;5092584;28;20051;-80
2021/01/01 08:45:30;;;;;;;73.43;36.97;;;3.20;92.50;;;;;;5092497;28;20028;-80
2021/01/01 08:47:55;;;;;;;63.28;34.58;;;3.20;92.50;;;;;;5092433;28;20378;-80
2021/01/01 08:50:26;;;;;;;65.63;35.38;;;3.20;92.50;;;;;;5057786;28;20021;-80
2021/01/01 08:53:01;;;;;;;70.55;35.40;;;3.20;92.60;;;;;;5069252;28;20036;-75
2021/01/01 08:55:28;;;;;;;61.67;33.97;;;3.20;92.60;;;;;;5087609;28;20028;-75
2021/01/01 08:58:17;;;;;;;65.65;35.40;;;3.20;92.50;;;;;;5090089;28;20480;-75
2021/01/01 09:00:44;;;;;;;71.00;36.22;;;3.20;92.60;;;;;;5069178;28;20032;-76
2021/01/01 09:03:11;;;;;;;69.90;36.00;;;3.20;92.50;;;;;;5074655;28;20028;-75
2021/01/01 09:05:37;;;;;;;69.40;35.75;;;3.30;92.60;;;;;;5074379;28;20028;-75
2021/01/01 09:08:15;;;;;;;70.90;35.42;;;3.30;92.50;;;;;;5074658;28;20020;-75
2021/01/01 09:10:43;;;;;;;78.15;38.90;;;3.30;92.50;;;;;;5093547;28;20032;-75
2021/01/01 09:13:30;;;;;;;83.78;40.78;;;3.30;92.50;;;;;;5089087;28;20063;-76
2021/01/01 09:16:04;;;;;;;68.32;36.67;;;3.30;92.40;;;;;;5078995;28;20068;-75
2021/01/01 09:18:30;;;;;;;68.22;35.40;;;3.30;92.50;;;;;;5102177;28;20031;-76
2021/01/01 09:21:13;;;;;;;91.25;41.83;;;3.30;92.50;;;;;;5077281;28;20024;-75
2021/01/01 09:23:40;;;;;;;72.15;36.67;;;3.30;92.50;;;;;;5070226;28;20035;-74
2021/01/01 09:26:07;;;;;;;69.47;35.45;;;3.30;92.50;;;;;;5095531;28;20056;-76
2021/01/01 09:28:34;;;;;;;85.72;40.92;;;3.30;92.60;;;;;;5095098;28;20032;-75
2021/01/01 09:31:00;;;;;;;68.70;34.97;;;3.30;92.50;;;;;;5077361;28;20559;-75
2021/01/01 09:33:27;;;;;;;71.10;35.00;;;3.30;92.60;;;;;;5075211;28;20090;-75
2021/01/01 09:35:53;;;;;;;69.78;33.88;;;3.30;92.60;;;;;;5076806;28;20496;-75
2021/01/01 09:38:18;;;;;;;63.15;34.30;;;3.30;92.60;;;;;;5060605;28;20051;-76
2021/01/01 09:40:44;;;;;;;64.18;32.78;;;3.30;92.60;;;;;;5060547;28;20571;-75
2021/01/01 09:43:09;;;;;;;63.80;32.38;;;3.30;92.50;;;;;;5076837;28;20107;-75
2021/01/01 09:45:36;;;;;;;67.03;34.03;;;3.40;92.60;;;;;;5056760;28;20036;-75
2021/01/01 09:48:03;;;;;;;71.15;34.03;;;3.30;92.50;;;;;;5078851;28;20441;-75
2021/01/01 09:50:29;;;;;;;67.13;34.75;;;3.30;92.60;;;;;;5095213;28;20177;-75
2021/01/01 09:52:54;;;;;;;68.53;34.55;;;3.30;92.60;;;;;;5076821;28;20551;-75
2021/01/01 09:55:20;;;;;;;59.60;32.10;;;3.30;92.50;;;;;;5076742;28;20028;-75
2021/01/01 09:57:49;;;;;;;67.13;31.83;;;3.40;92.60;;;;;;5095064;28;20016;-75
2021/01/01 10:00:16;;;;;;;62.47;30.92;;;3.30;92.60;;;;;;5077170;28;20389;-74
2021/01/01 10:02:43;;;;;;;64.93;33.90;;;3.40;92.60;;;;;;5094821;28;20059;-75
2021/01/01 10:05:10;;;;;;;67.93;33.92;;;3.40;92.60;;;;;;5109258;27;20159;-75
2021/01/01 10:07:36;;;;;;;60.22;31.35;;;3.40;92.50;;;;;;5082121;28;20043;-75
2021/01/01 10:10:07;;;;;;;55.15;31.55;;;3.40;92.50;;;;;;5076369;28;20651;-75
2021/01/01 10:12:33;;;;;;;65.70;32.80;;;3.50;92.50;;;;;;5094777;28;20028;-75
2021/01/01 10:14:59;;;;;;;63.47;31.65;;;3.50;92.50;;;;;;5076622;28;21022;-75
2021/01/01 10:17:25;;;;;;;58.65;31.00;;;3.50;92.50;;;;;;5098314;28;20055;-75
2021/01/01 10:19:51;;;;;;;58.60;30.90;;;3.50;92.50;;;;;;5076438;28;20021;-75
2021/01/01 10:22:17;;;;;;;58.28;29.38;;;3.60;92.50;;;;;;5076154;28;20098;-75
2021/01/01 10:24:44;;;;;;;58.80;30.40;;;3.60;92.50;;;;;;5074977;28;20388;-75
2021/01/01 10:27:10;;;;;;;56.58;29.42;;;3.60;92.50;;;;;;5093371;28;20040;-75
2021/01/01 10:29:36;;;;;;;58.08;29.73;;;3.60;92.40;;;;;;5094563;28;20039;-76
2021/01/01 10:32:05;;;;;;;62.83;32.55;;;3.60;92.40;;;;;;5075929;28;20389;-75
2021/01/01 10:34:31;;;;;;;66.95;35.17;;;3.60;92.40;;;;;;5066580;28;20036;-76
2021/01/01 10:36:56;;;;;;;61.22;31.70;;;3.70;92.40;;;;;;5084112;28;20107;-75
2021/01/01 10:39:22;;;;;;;57.70;31.52;;;3.70;92.40;;;;;;5076377;28;20032;-76
2021/01/01 10:41:49;;;;;;;60.65;32.97;;;3.70;92.40;;;;;;5093894;28;20392;-75
2021/01/01 10:44:15;;;;;;;61.30;33.80;;;3.70;92.40;;;;;;5093871;28;20031;-77
2021/01/01 10:47:00;;;;;;;59.67;32.83;;;3.70;92.40;;;;;;5075541;28;20028;-75
2021/01/01 10:49:25;;;;;;;60.47;32.75;;;3.70;92.40;;;;;;5057242;28;20082;-75
2021/01/01 10:51:56;;;;;;;63.80;33.63;;;3.70;92.30;;;;;;5075445;28;20106;-75
2021/01/01 10:54:21;;;;;;;62.90;32.95;;;3.70;92.40;;;;;;5093306;28;20024;-75
2021/01/01 10:56:47;;;;;;;58.42;31.98;;;3.70;92.30;;;;;;5075754;28;20503;-75
2021/01/01 10:59:13;;;;;;;59.60;31.55;;;3.70;92.40;;;;;;5075557;28;20036;-75
2021/01/01 11:01:38;;;;;;;68.80;35.15;;;3.70;92.40;;;;;;5093345;28;20024;-75
2021/01/01 11:04:04;;;;;;;62.13;33.75;;;3.70;92.40;;;;;;5058762;28;20377;-75
2021/01/01 11:06:33;;;;;;;63.42;33.45;;;3.70;92.40;;;;;;5059851;28;20115;-75
2021/01/01 11:08:58;;;;;;;70.88;34.80;;;3.70;92.60;;;;;;5076012;28;20107;-75
2021/01/01 11:11:24;;;;;;;59.28;31.80;;;3.70;92.30;;;;;;5093760;28;20071;-75
2021/01/01 11:14:06;;;;;;;63.88;31.95;;;3.70;92.40;;;;;;5075399;28;20522;-74
2021/01/01 12:21:06;;;;;;;48.53;27.75;;;5.90;87.20;;;;;;5077362;28;20501;-77
2021/01/01 12:23:41;;;;;;;53.40;28.60;;;6.10;86.30;;;;;;5075513;28;20047;-78
2021/01/01 12:26:08;;;;;;;47.40;26.90;;;6.30;86.10;;;;;;5057624;28;20078;-77
2021/01/01 12:28:35;;;;;;;42.30;25.67;;;6.50;84.70;;;;;;5060983;28;20058;-77
2021/01/01 12:31:04;;;;;;;45.88;25.08;;;6.90;83.40;;;;;;5075763;28;20078;-77
2021/01/01 12:33:31;;;;;;;44.60;24.03;;;7.20;82.20;;;;;;5092402;28;20058;-77
2021/01/01 12:35:56;;;;;;;42.20;25.17;;;7.50;81.40;;;;;;5074400;28;20035;-77
2021/01/01 12:38:22;;;;;;;42.10;24.25;;;7.50;81.00;;;;;;5056671;28;20036;-77
2021/01/01 12:40:48;;;;;;;40.03;23.95;;;7.30;82.00;;;;;;5052454;28;20063;-77
2021/01/01 12:43:13;;;;;;;41.38;23.63;;;7.10;82.90;;;;;;5057002;28;20077;-77
2021/01/01 12:45:39;;;;;;;37.30;22.80;;;6.90;84.10;;;;;;5075729;28;20024;-77
2021/01/01 12:48:05;;;;;;;37.88;22.90;;;6.70;85.20;;;;;;5077126;28;20028;-77
2021/01/01 12:50:31;;;;;;;43.50;22.50;;;6.60;85.80;;;;;;5076999;28;20074;-77
2021/01/01 12:52:58;;;;;;;41.92;23.08;;;6.40;86.40;;;;;;5077969;28;20063;-77
2021/01/01 12:55:25;;;;;;;37.03;22.27;;;6.30;87.20;;;;;;5096646;28;20020;-78
2021/01/01 12:57:51;;;;;;;31.60;20.55;;;6.50;86.20;;;;;;5095251;28;20031;-78
2021/01/01 13:00:18;;;;;;;34.72;21.17;;;6.80;85.10;;;;;;5082307;28;20028;-77
2021/01/01 13:02:44;;;;;;;31.25;19.63;;;7.10;83.90;;;;;;5097271;28;20423;-77
2021/01/01 13:05:10;;;;;;;35.35;20.80;;;7.30;83.20;;;;;;5082268;28;20020;-79
2021/01/01 13:07:37;;;;;;;31.38;20.10;;;7.20;83.30;;;;;;5061043;28;20034;-79
2021/01/01 13:10:05;;;;;;;34.10;20.58;;;7.00;84.30;;;;;;5077769;28;20059;-79
2021/01/01 13:12:30;;;;;;;31.63;20.95;;;6.80;85.40;;;;;;5075811;28;20123;-79
2021/01/01 13:14:56;;;;;;;36.15;21.30;;;6.80;85.90;;;;;;5057381;28;20135;-79
2021/01/01 13:17:21;;;;;;;33.85;20.95;;;7.00;85.10;;;;;;5058174;28;20059;-79
2021/01/01 13:19:47;;;;;;;29.63;18.55;;;7.50;83.40;;;;;;5090187;28;20110;-78
2021/01/01 13:22:13;;;;;;;33.25;20.08;;;7.90;82.10;;;;;;5086530;28;20032;-77
2021/01/01 13:24:38;;;;;;;29.83;18.90;;;8.20;81.00;;;;;;5048271;28;20134;-77
2021/01/01 13:27:04;;;;;;;28.13;18.63;;;8.20;81.00;;;;;;5081353;28;20032;-78
2021/01/01 13:29:29;;;;;;;29.08;18.75;;;8.20;81.50;;;;;;5077366;28;20085;-78
2021/01/01 13:31:55;;;;;;;32.25;20.10;;;8.20;81.80;;;;;;5077098;28;20024;-77
2021/01/01 13:34:21;;;;;;;29.63;18.77;;;8.30;81.00;;;;;;5063045;28;20030;-77
2021/01/01 13:36:53;;;;;;;30.23;18.65;;;8.20;81.10;;;;;;5051843;28;20054;-77
2021/01/01 13:39:19;;;;;;;29.23;19.02;;;8.00;82.10;;;;;;5076771;28;20545;-77
2021/01/01 13:41:44;;;;;;;31.75;20.50;;;7.70;83.00;;;;;;5077435;28;20028;-77
2021/01/01 13:44:10;;;;;;;29.15;18.95;;;7.40;83.80;;;;;;5040627;28;20397;-77
2021/01/01 13:46:36;;;;;;;28.80;19.48;;;7.20;84.50;;;;;;5072236;28;20028;-77
2021/01/01 13:49:04;;;;;;;28.25;19.00;;;7.00;85.10;;;;;;5060280;28;20028;-77